This is the latest recevied weather packets stored in our database for station/object OE5RBO. If no packets are shown the sender has not sent any weather packets the latest 1 day(s).
| Time | Temp. | Humidity | Pressure | Rain* | Wind** | Luminosity | Snow |
|---|---|---|---|---|---|---|---|
| 1778050767 | 20.56° C | 73% | 1007.1 hPa | 0 mm | - | - | - |
| 1778049566 | 17.22° C | 83% | 1007.3 hPa | 0 mm | - | - | - |
| 1778048966 | 16.67° C | 84% | 1007.4 hPa | 0 mm | - | - | - |
| 1778048365 | 16.11° C | 86% | 1007.3 hPa | 0 mm | - | - | - |
| 1778047164 | 15.56° C | 87% | 1007.3 hPa | 0 mm | - | - | - |
| 1778046564 | 16.11° C | 85% | 1007.3 hPa | 0 mm | - | - | - |
| 1778043562 | 11.11° C | 97% | 1007.6 hPa | 0 mm | - | - | - |
| 1778042962 | 11.11° C | 97% | 1007.6 hPa | 0 mm | - | - | - |
| 1778042361 | 11.11° C | 97% | 1007.6 hPa | 0 mm | - | - | - |
| 1778041761 | 11.67° C | 95% | 1007.4 hPa | 0 mm | - | - | - |
| 1778041160 | 12.22° C | 92% | 1007.4 hPa | 0 mm | - | - | - |
| 1778039360 | 13.89° C | 86% | 1008 hPa | 0 mm | - | - | - |
| 1778038159 | 13.89° C | 84% | 1008 hPa | 0 mm | - | - | - |
| 1778037558 | 13.33° C | 88% | 1008.3 hPa | 0 mm | - | - | - |
| 1778036958 | 13.33° C | 92% | 1008.5 hPa | 0 mm | - | - | - |
| 1778035157 | 13.89° C | 88% | 1008 hPa | 0 mm | - | - | - |
| 1778034557 | 13.89° C | 89% | 1008 hPa | 0 mm | - | - | - |
| 1778033356 | 13.89° C | 91% | 1008.3 hPa | 0 mm | - | - | - |
| 1778032155 | 13.89° C | 92% | 1008.4 hPa | 0 mm | - | - | - |
| 1778031555 | 13.33° C | 93% | 1008.3 hPa | 0 mm | - | - | - |
| 1778030354 | 13.33° C | 93% | 1008.4 hPa | 0 mm | - | - | - |
| 1778029754 | 13.33° C | 93% | 1008.4 hPa | 0 mm | - | - | - |
| 1778027953 | 13.89° C | 94% | 1008.7 hPa | 0 mm | - | - | - |
| 1778026752 | 13.89° C | 93% | 1008.4 hPa | 0 mm | - | - | - |
| 1778026152 | 13.89° C | 92% | 1008.8 hPa | 0 mm | - | - | - |
* Rain since midnight (hover to see other rain measurements)
** Current wind speed in m/s (hover to see current wind gust speed)